Monterey, CA (93944)

10:04 PM PST on December 24, 2014 (GMT -0800)
KCAMONTE12 | Change Station
CLOSE
Current Station
Personal Weather Station
Location: Monterey, CA
Elevation: 292 ft
Nearby Weather Stations
Active Advisory: Special Statement Active Notice: Public Information Statement

Elev 292 ft 36.56 °N, 121.79 °W | Updated 3 seconds ago

Clear
Clear
48.0 °F
Feels Like 48 °F
N
0.0
Wind Variable Wind from West
Gusts 0.0 mph

Today
High -- | Low -- °F
--% Chance of Precip.
Yesterday
High -- | Low -- °F
Precip. -- in
7:17 AM 4:56 PM
Waxing Crescent, 13% visible
Pressure 30.07 in
Visibility 10.0 miles
Clouds Clear
Windchill 48 °F
Dew Point 34 °F
Humidity 59%
Rainfall 15.97 in
Snow Depth Not available.
UV 0.0 out of 12
Pollen 3.50 out of 12
Air Quality Not available.
Flu Activity Not available.
METAR KMRY 250554Z AUTO 30011G16KT 10SM CLR 12/04 A3004 RMK AO2 SLP183 60002 T01220044 10144 20122 55001

More Conditions Fewer Conditions

Pressure 30.07 in
Visibility 10.0 miles
Clouds Clear
Windchill 48 °F
Dew Point 34 °F
Humidity 59%
Rainfall 15.97 in
Snow Depth Not available.
UV 0.0 out of 12
Pollen 3.50 out of 12
Air Quality Not available.
Flu Activity Not available.
METAR KMRY 250554Z AUTO 30011G16KT 10SM CLR 12/04 A3004 RMK AO2 SLP183 60002 T01220044 10144 20122 55001

More Conditions Fewer Conditions

10-Day Weather Forecast

Almanac

Astronomy

Dec. 24, 2014 Rise Set
Actual Time
Civil Twilight
Nautical Twilight
Astronomical Twilight
Moon
Length of Visible Light
Length of Day
Tomorrow will be .
, % of the Moon is Illuminated

Today's Extremes

State Highs State Lows

Community

WunderPhotos

Upload Photos

1,780,245 photos uploaded!

WunderBlogs® & News

Nearby

Air Quality

  Air Quality AQ Index Pollutant
Not available.

Snow Depth

Station Depth Elevation

Earthquake Activity

City Distance Mag. Time & Date
Minimum magnitude displayed is 2.5.

Coastal Water Temperatures

Place Temperature

Nearby Weather Stations